Westville, Ohio
Current Conditions -  °F | °C
As of 3:56 PM on Saturday 20 Dec 2014 (Local Time) from KSGH Reporting Station
Haze Haze  
Wind Chill: 30°   Ceiling: 1600
Heat Index: 30°   Visibility: 6mi
Dew Point: 24°   Wind: 0mph
Humidity: 79%   Direction: NA
Pressure: 30.25"   Gusts: NA
Location:  40.1°N, 83.83°W
Report Text: KSGH 202056Z AUTO 00000KT 6SM HZ OVC016 M01/M04 A3025 RMK AO2 56006 T10111044 SLP256
Loading
Personal Weather Stations






























Interactive Weather Map New forecast layout! Learn more

10-Day Weather Forecast

Advertisements
Track Severe Weather on mobile